Terminal Aerodrome Forecast
Issued by NWS Detroit/Pontiac, MI

Home | Current Version | Previous Version | Text Only | Print | Product List | Glossary On
Versions: 1 2 3 4 5 6 7 8 9 10 11 12 13 14 15 16 17 18 19 20 21 22 23 24 25 26 27 28
013
FTUS43 KDTX 291213 AAA
TAFDTW
TAF AMD
KDTW 291213Z 2912/3018 05005KT P6SM BKN028 OVC035
     FM291300 03007KT 6SM -SHRA BKN028 OVC035
     FM291900 06010KT P6SM OVC045
     FM300000 06004KT P6SM SCT200
     FM301500 08012KT P6SM OVC200=

USA.gov is the U.S. government's official web portal to all federal, state and local government web resources and services.